Flight Track Log - Related Links

Times and Time Zones

All times are in EST time to prevent confusion due to time zone crossing. See the N81EZ flight status page for this flight to view local times or setup timezone preferences in your user account.


Time Position Orientation Groundspeed Altitude Reporting Facility
EST Latitude Longitude Course Direction KTS MPH feet Rate Location/Type
Tue 04:20:16 PM 42.2514 -85.2858 75° East 86 99 3,600  Level Chicago Center
Tue 04:21:19 PM 42.2478 -85.3175 261° West 84 97 4,100 192 Climbing Chicago Center
Tue 04:22:21 PM 42.2650 -85.3567 301° West 105 121 4,000  Descending Chicago Center
Tue 04:23:23 PM 42.2817 -85.3789 315° West 99 114 4,100  Climbing Chicago Center
Tue 04:24:00 PM 42.3065 -85.2501 253° West  Level Estimated
Tue 04:24:25 PM 42.3072 -85.4092 319° Northwest 101 116 4,000  Level Chicago Center
Tue 04:25:00 PM 42.3065 -85.2501 75° East  Level Estimated
Tue 04:25:27 PM 42.3264 -85.4361 314° West 100 115 4,000  Level Chicago Center
Tue 04:26:29 PM 42.3294 -85.4653 278° West 99 114 4,000  Level Chicago Center
Tue 04:27:31 PM 42.3256 -85.4997 261° West 93 107 4,000  Level Chicago Center
Tue 04:28:33 PM 42.3231 -85.5331 264° West 90 104 4,000  Level Chicago Center
Tue 04:29:35 PM 42.3197 -85.5689 263° West 94 108 4,000  Level Chicago Center
Tue 04:30:37 PM 42.3161 -85.6114 263° West 95 109 4,000  Level Chicago Center
Tue 04:31:39 PM 42.3139 -85.6472 265° West 96 110 4,000  Level Chicago Center
Tue 04:32:41 PM 42.3111 -85.6814 264° West 93 107 4,000  Level Chicago Center
Tue 04:33:44 PM 42.2914 -85.6939 205° Southwest 115 132 4,000 48 Level Chicago Center
Tue 04:34:46 PM 42.2539 -85.6769 162° South 126 145 4,100 48 Climbing Chicago Center
Tue 04:35:48 PM 42.2197 -85.6647 165° South 127 146 4,100  Level Chicago Center
Tue 04:36:50 PM 42.1853 -85.6533 166° South 127 146 4,100 -194 Level Chicago Center
Tue 04:37:52 PM 42.1492 -85.6397 164° South 133 153 3,700 -532 Descending Chicago Center
Tue 04:38:54 PM 42.1139 -85.6261 164° South 133 153 3,000 -387 Descending Chicago Center
Tue 04:39:56 PM 42.0742 -85.6172 171° South 126 145 2,900 -97 Descending Chicago Center
Tue 04:40:58 PM 42.0436 -85.6092 169° South 119 137 2,800  Descending Chicago Center
Tue 04:42:00 PM 42.0406 -85.5578 95° East 133 153 2,900 48 Climbing Chicago Center
Tue 04:43:02 PM 42.0511 -85.5197 70° East 125 144 2,900 -48 Level Chicago Center
Tue 04:44:04 PM 42.0828 -85.5208 359° North 118 136 2,800 -48 Descending Chicago Center
Tue 04:45:07 PM 42.1119 -85.5250 354° North 112 129 2,800 -48 Level Chicago Center
Tue 04:46:09 PM 42.1464 -85.5319 351° North 107 123 2,700 -290 Descending Chicago Center
Tue 04:47:11 PM 42.1711 -85.5381 350° North 98 113 2,200 -581 Descending Chicago Center
Tue 04:48:13 PM 42.1972 -85.5447 349° North 96 110 1,500 -387 Descending Chicago Center
Tue 04:49:15 PM 42.2233 -85.5508 350° North 96 110 1,400 302 Descending Chicago Center
Tue 04:51:32 PM 42.2744 -85.5197 86° East 145 167 2,500 482 Climbing Chicago Center
Tue 04:52:34 PM 42.2950 -85.4869 50° Northeast 114 131 3,000 242 Climbing Chicago Center
Tue 04:53:36 PM 42.3164 -85.4353 61° Northeast 143 165 3,000  Level Chicago Center
Tue 04:54:38 PM 42.3383 -85.3767 63° Northeast 148 170 3,000  Level Chicago Center
Tue 04:55:40 PM 42.3544 -85.3311 64° Northeast 140 161 3,000  Level Chicago Center
Tue 04:56:42 PM 42.3706 -85.2867 64° Northeast 135 155 3,000  Level Chicago Center
Tue 04:57:44 PM 42.3886 -85.2383 63° Northeast 140 161 3,000 -48 Level Chicago Center
Tue 04:58:46 PM 42.4075 -85.1914 61° Northeast 142 163 2,900  Descending Chicago Center
Tue 04:59:50 PM 42.4267 -85.1350 65° Northeast 139 160 3,000 95 Climbing Chicago Center
Tue 05:00:52 PM 42.4433 -85.0869 65° Northeast 139 160 3,100 -194 Climbing Chicago Center
Tue 05:01:54 PM 42.4703 -85.0517 44° Northeast 137 158 2,600 -290 Descending Chicago Center
Tue 05:02:56 PM 42.4992 -85.0247 35° Northeast 130 150 2,500 -48 Descending Chicago Center
Tue 05:03:58 PM 42.4897 -85.0514 244° Southwest 117 135 2,500  Level Chicago Center
Tue 05:05:01 PM 42.4567 -85.0664 199° South 103 119 2,500 -96 Level Chicago Center
Tue 05:06:03 PM 42.4369 -85.0919 224° Southwest 104 120 2,300 -145 Descending Chicago Center
Tue 05:07:05 PM 42.4192 -85.1178 227° Southwest 99 114 2,200 97 Descending Chicago Center
Tue 05:08:07 PM 42.4022 -85.1386 222° Southwest 92 106 2,500  Climbing Chicago Center
Tue 05:09:09 PM 42.3792 -85.1644 220° Southwest 89 102 2,200 -145 Descending Chicago Center
Tue 05:10:11 PM 42.3600 -85.1889 223° Southwest 92 106 2,200 -194 Level Chicago Center
Tue 05:11:13 PM 42.3444 -85.2119 228° Southwest 89 102 1,800 -290 Descending Chicago Center
Tue 05:12:15 PM 42.3289 -85.2314 223° Southwest 86 99 1,600 -194 Descending Chicago Center

Login

Don't have an account? Register now (free) for customized features, flight alerts, and more!